sensor_id;sensor_type;location;lat;lon;timestamp;pressure;altitude;pressure_sealevel;temperature;humidity
79048;BME280;68680;50.764;6.120;2023-10-09T00:01:27;99974.09;;;17.22;83.36
79048;BME280;68680;50.764;6.120;2023-10-09T00:03:53;99979.78;;;17.26;84.28
79048;BME280;68680;50.764;6.120;2023-10-09T00:06:19;99978.97;;;17.25;83.91
79048;BME280;68680;50.764;6.120;2023-10-09T00:08:45;99980.56;;;17.21;84.19
79048;BME280;68680;50.764;6.120;2023-10-09T00:11:11;99986.63;;;17.34;83.32
79048;BME280;68680;50.764;6.120;2023-10-09T00:13:37;99981.19;;;17.29;83.53
79048;BME280;68680;50.764;6.120;2023-10-09T00:16:06;99980.50;;;17.16;84.94
79048;BME280;68680;50.764;6.120;2023-10-09T00:18:32;99973.25;;;17.17;84.76
79048;BME280;68680;50.764;6.120;2023-10-09T00:20:57;99968.88;;;17.11;85.12
79048;BME280;68680;50.764;6.120;2023-10-09T00:23:23;99974.56;;;17.14;84.11
79048;BME280;68680;50.764;6.120;2023-10-09T00:25:49;99976.53;;;17.24;84.42
79048;BME280;68680;50.764;6.120;2023-10-09T00:28:15;99978.13;;;17.20;84.95
79048;BME280;68680;50.764;6.120;2023-10-09T00:30:41;99967.91;;;17.22;84.84
79048;BME280;68680;50.764;6.120;2023-10-09T00:33:08;99972.19;;;17.18;85.21
79048;BME280;68680;50.764;6.120;2023-10-09T00:35:37;99969.47;;;17.18;84.54
79048;BME280;68680;50.764;6.120;2023-10-09T00:38:03;99965.69;;;17.19;84.48
79048;BME280;68680;50.764;6.120;2023-10-09T00:40:30;99968.97;;;17.21;85.14
79048;BME280;68680;50.764;6.120;2023-10-09T00:42:57;99966.47;;;17.14;85.13
79048;BME280;68680;50.764;6.120;2023-10-09T00:45:24;99963.53;;;17.16;85.04
79048;BME280;68680;50.764;6.120;2023-10-09T00:47:51;99961.88;;;17.15;85.13
79048;BME280;68680;50.764;6.120;2023-10-09T00:50:18;99956.00;;;17.18;84.57
79048;BME280;68680;50.764;6.120;2023-10-09T00:52:47;99962.66;;;17.10;85.10
79048;BME280;68680;50.764;6.120;2023-10-09T00:55:14;99952.53;;;17.22;84.16
79048;BME280;68680;50.764;6.120;2023-10-09T00:57:44;99953.19;;;17.08;85.00
79048;BME280;68680;50.764;6.120;2023-10-09T01:00:11;99944.94;;;17.19;84.96
79048;BME280;68680;50.764;6.120;2023-10-09T01:02:37;99952.03;;;16.99;85.48
79048;BME280;68680;50.764;6.120;2023-10-09T01:05:04;99940.19;;;17.00;85.58
79048;BME280;68680;50.764;6.120;2023-10-09T01:07:31;99943.88;;;16.94;85.83
79048;BME280;68680;50.764;6.120;2023-10-09T01:09:57;99940.00;;;17.06;85.64
79048;BME280;68680;50.764;6.120;2023-10-09T01:12:23;99928.16;;;17.12;85.03
79048;BME280;68680;50.764;6.120;2023-10-09T01:14:49;99926.91;;;16.93;85.99
79048;BME280;68680;50.764;6.120;2023-10-09T01:17:15;99922.63;;;16.97;86.00
79048;BME280;68680;50.764;6.120;2023-10-09T01:19:40;99929.66;;;16.98;86.09
79048;BME280;68680;50.764;6.120;2023-10-09T01:22:06;99918.69;;;17.05;85.90
79048;BME280;68680;50.764;6.120;2023-10-09T01:24:33;99924.84;;;17.00;85.83
79048;BME280;68680;50.764;6.120;2023-10-09T01:26:59;99919.38;;;16.95;86.02
79048;BME280;68680;50.764;6.120;2023-10-09T01:29:25;99920.66;;;16.88;86.34
79048;BME280;68680;50.764;6.120;2023-10-09T01:31:52;99928.84;;;16.98;86.21
79048;BME280;68680;50.764;6.120;2023-10-09T01:34:19;99926.72;;;17.00;86.14
79048;BME280;68680;50.764;6.120;2023-10-09T01:36:45;99931.97;;;16.90;86.70
79048;BME280;68680;50.764;6.120;2023-10-09T01:39:10;99926.09;;;16.93;86.15
79048;BME280;68680;50.764;6.120;2023-10-09T01:41:37;99929.41;;;17.00;85.99
79048;BME280;68680;50.764;6.120;2023-10-09T01:44:03;99926.19;;;17.03;85.61
79048;BME280;68680;50.764;6.120;2023-10-09T01:46:29;99929.50;;;17.10;85.84
79048;BME280;68680;50.764;6.120;2023-10-09T01:48:55;99922.94;;;17.01;86.38
79048;BME280;68680;50.764;6.120;2023-10-09T01:51:21;99919.06;;;16.92;86.92
79048;BME280;68680;50.764;6.120;2023-10-09T01:53:47;99918.56;;;16.95;87.22
79048;BME280;68680;50.764;6.120;2023-10-09T01:56:12;99912.41;;;16.99;87.25
79048;BME280;68680;50.764;6.120;2023-10-09T01:58:40;99912.63;;;16.93;87.90
79048;BME280;68680;50.764;6.120;2023-10-09T02:01:05;99908.34;;;16.97;87.30
79048;BME280;68680;50.764;6.120;2023-10-09T02:03:31;99906.66;;;16.91;87.76
79048;BME280;68680;50.764;6.120;2023-10-09T02:05:57;99914.25;;;16.94;87.46
79048;BME280;68680;50.764;6.120;2023-10-09T02:08:23;99927.25;;;17.02;87.04
79048;BME280;68680;50.764;6.120;2023-10-09T02:10:48;99934.03;;;17.04;87.34
79048;BME280;68680;50.764;6.120;2023-10-09T02:13:15;99934.84;;;17.05;87.50
79048;BME280;68680;50.764;6.120;2023-10-09T02:15:43;99927.00;;;17.03;87.68
79048;BME280;68680;50.764;6.120;2023-10-09T02:18:10;99932.16;;;17.05;88.14
79048;BME280;68680;50.764;6.120;2023-10-09T02:20:36;99929.41;;;17.00;87.95
79048;BME280;68680;50.764;6.120;2023-10-09T02:23:02;99917.34;;;17.07;87.45
79048;BME280;68680;50.764;6.120;2023-10-09T02:25:28;99918.91;;;17.03;87.89
79048;BME280;68680;50.764;6.120;2023-10-09T02:27:54;99919.16;;;17.02;86.78
79048;BME280;68680;50.764;6.120;2023-10-09T02:30:20;99916.22;;;17.03;87.12
79048;BME280;68680;50.764;6.120;2023-10-09T02:32:47;99914.09;;;17.05;86.75
79048;BME280;68680;50.764;6.120;2023-10-09T02:35:13;99914.19;;;17.15;86.42
79048;BME280;68680;50.764;6.120;2023-10-09T02:37:38;99910.19;;;17.18;86.64
79048;BME280;68680;50.764;6.120;2023-10-09T02:40:06;99917.66;;;17.11;87.19
79048;BME280;68680;50.764;6.120;2023-10-09T02:42:32;99922.59;;;17.24;86.40
79048;BME280;68680;50.764;6.120;2023-10-09T02:44:58;99927.91;;;17.14;87.22
79048;BME280;68680;50.764;6.120;2023-10-09T02:47:23;99928.44;;;17.11;87.21
79048;BME280;68680;50.764;6.120;2023-10-09T02:49:51;99923.03;;;17.11;86.86
79048;BME280;68680;50.764;6.120;2023-10-09T02:52:17;99921.22;;;17.16;86.49
79048;BME280;68680;50.764;6.120;2023-10-09T02:54:43;99921.22;;;17.16;87.17
79048;BME280;68680;50.764;6.120;2023-10-09T02:57:09;99933.56;;;17.12;87.11
79048;BME280;68680;50.764;6.120;2023-10-09T02:59:35;99925.16;;;17.09;86.93
79048;BME280;68680;50.764;6.120;2023-10-09T03:02:01;99917.03;;;17.04;86.85
79048;BME280;68680;50.764;6.120;2023-10-09T03:04:27;99918.63;;;17.00;87.24
79048;BME280;68680;50.764;6.120;2023-10-09T03:06:54;99925.75;;;17.11;86.83
79048;BME280;68680;50.764;6.120;2023-10-09T03:09:20;99914.47;;;17.19;87.21
79048;BME280;68680;50.764;6.120;2023-10-09T03:11:49;99921.47;;;17.15;86.73
79048;BME280;68680;50.764;6.120;2023-10-09T03:14:15;99913.72;;;16.97;87.76
79048;BME280;68680;50.764;6.120;2023-10-09T03:16:41;99917.81;;;16.99;88.02
79048;BME280;68680;50.764;6.120;2023-10-09T03:19:07;99926.75;;;17.05;87.72
79048;BME280;68680;50.764;6.120;2023-10-09T03:21:32;99928.06;;;17.02;88.26
79048;BME280;68680;50.764;6.120;2023-10-09T03:23:59;99925.63;;;17.01;87.77
79048;BME280;68680;50.764;6.120;2023-10-09T03:26:25;99928.38;;;17.06;87.38
79048;BME280;68680;50.764;6.120;2023-10-09T03:28:51;99921.03;;;17.01;87.30
79048;BME280;68680;50.764;6.120;2023-10-09T03:31:17;99914.78;;;16.96;87.43
79048;BME280;68680;50.764;6.120;2023-10-09T03:33:43;99918.44;;;16.84;88.41
79048;BME280;68680;50.764;6.120;2023-10-09T03:36:09;99915.13;;;16.77;88.50
79048;BME280;68680;50.764;6.120;2023-10-09T03:38:36;99915.22;;;16.82;88.90
79048;BME280;68680;50.764;6.120;2023-10-09T03:41:04;99909.16;;;16.70;88.89
79048;BME280;68680;50.764;6.120;2023-10-09T03:43:30;99906.47;;;16.70;89.29
79048;BME280;68680;50.764;6.120;2023-10-09T03:45:55;99915.03;;;16.67;89.92
79048;BME280;68680;50.764;6.120;2023-10-09T03:48:21;99916.59;;;16.63;90.63
79048;BME280;68680;50.764;6.120;2023-10-09T03:50:47;99914.66;;;16.59;90.07
79048;BME280;68680;50.764;6.120;2023-10-09T03:53:13;99915.03;;;16.46;90.35
79048;BME280;68680;50.764;6.120;2023-10-09T03:55:40;99916.53;;;16.36;91.02
79048;BME280;68680;50.764;6.120;2023-10-09T03:58:08;99915.38;;;16.32;91.38
79048;BME280;68680;50.764;6.120;2023-10-09T04:00:34;99912.31;;;16.24;92.31
79048;BME280;68680;50.764;6.120;2023-10-09T04:02:59;99915.09;;;16.29;91.73
79048;BME280;68680;50.764;6.120;2023-10-09T04:05:26;99911.75;;;16.22;91.99
79048;BME280;68680;50.764;6.120;2023-10-09T04:07:51;99902.88;;;16.21;91.89
79048;BME280;68680;50.764;6.120;2023-10-09T04:10:17;99899.94;;;16.23;91.52
79048;BME280;68680;50.764;6.120;2023-10-09T04:12:43;99917.25;;;16.32;91.95
79048;BME280;68680;50.764;6.120;2023-10-09T04:15:10;99915.63;;;16.31;92.48
79048;BME280;68680;50.764;6.120;2023-10-09T04:17:36;99917.03;;;16.33;91.78
79048;BME280;68680;50.764;6.120;2023-10-09T04:20:03;99907.88;;;16.34;91.64
79048;BME280;68680;50.764;6.120;2023-10-09T04:22:30;99913.03;;;16.36;91.11
79048;BME280;68680;50.764;6.120;2023-10-09T04:24:55;99896.31;;;16.34;91.14
79048;BME280;68680;50.764;6.120;2023-10-09T04:27:21;99902.56;;;16.39;90.79
79048;BME280;68680;50.764;6.120;2023-10-09T04:29:47;99894.19;;;16.36;90.88
79048;BME280;68680;50.764;6.120;2023-10-09T04:32:14;99895.06;;;16.41;90.56
79048;BME280;68680;50.764;6.120;2023-10-09T04:34:40;99903.06;;;16.36;90.73
79048;BME280;68680;50.764;6.120;2023-10-09T04:37:05;99913.09;;;16.41;90.25
79048;BME280;68680;50.764;6.120;2023-10-09T04:39:31;99913.72;;;16.48;89.34
79048;BME280;68680;50.764;6.120;2023-10-09T04:41:58;99920.69;;;16.49;89.44
79048;BME280;68680;50.764;6.120;2023-10-09T04:44:24;99931.41;;;16.44;90.13
79048;BME280;68680;50.764;6.120;2023-10-09T04:46:50;99930.88;;;16.42;89.76
79048;BME280;68680;50.764;6.120;2023-10-09T04:49:18;99926.53;;;16.41;90.11
79048;BME280;68680;50.764;6.120;2023-10-09T04:51:44;99933.09;;;16.50;89.67
79048;BME280;68680;50.764;6.120;2023-10-09T04:54:28;99912.56;;;16.44;90.23
79048;BME280;68680;50.764;6.120;2023-10-09T04:56:53;99913.19;;;16.51;89.23
79048;BME280;68680;50.764;6.120;2023-10-09T04:59:19;99924.41;;;16.43;90.47
79048;BME280;68680;50.764;6.120;2023-10-09T05:01:45;99912.03;;;16.42;89.75
79048;BME280;68680;50.764;6.120;2023-10-09T05:04:14;99910.94;;;16.43;90.02
79048;BME280;68680;50.764;6.120;2023-10-09T05:06:41;99906.13;;;16.45;89.76
79048;BME280;68680;50.764;6.120;2023-10-09T05:09:07;99897.81;;;16.47;88.57
79048;BME280;68680;50.764;6.120;2023-10-09T05:11:32;99902.47;;;16.56;88.54
79048;BME280;68680;50.764;6.120;2023-10-09T05:13:58;99895.41;;;16.50;87.63
79048;BME280;68680;50.764;6.120;2023-10-09T05:16:24;99889.22;;;16.50;87.24
79048;BME280;68680;50.764;6.120;2023-10-09T05:18:50;99877.28;;;16.62;86.21
79048;BME280;68680;50.764;6.120;2023-10-09T05:21:16;99888.56;;;16.59;86.63
79048;BME280;68680;50.764;6.120;2023-10-09T05:23:43;99879.25;;;16.50;87.13
79048;BME280;68680;50.764;6.120;2023-10-09T05:26:09;99878.13;;;16.46;87.21
79048;BME280;68680;50.764;6.120;2023-10-09T05:28:34;99878.13;;;16.46;87.18
79048;BME280;68680;50.764;6.120;2023-10-09T05:31:00;99865.38;;;16.36;87.72
79048;BME280;68680;50.764;6.120;2023-10-09T05:33:26;99870.50;;;16.38;87.88
79048;BME280;68680;50.764;6.120;2023-10-09T05:35:52;99874.53;;;16.35;87.80
79048;BME280;68680;50.764;6.120;2023-10-09T05:38:17;99868.19;;;16.47;87.09
79048;BME280;68680;50.764;6.120;2023-10-09T05:40:44;99876.41;;;16.35;87.03
79048;BME280;68680;50.764;6.120;2023-10-09T05:43:10;99873.94;;;16.33;87.44
79048;BME280;68680;50.764;6.120;2023-10-09T05:45:36;99866.13;;;16.32;87.09
79048;BME280;68680;50.764;6.120;2023-10-09T05:48:02;99882.91;;;16.39;87.04
79048;BME280;68680;50.764;6.120;2023-10-09T05:50:29;99883.41;;;16.36;86.76
79048;BME280;68680;50.764;6.120;2023-10-09T05:52:56;99884.53;;;16.40;86.50
79048;BME280;68680;50.764;6.120;2023-10-09T05:55:24;99900.78;;;16.50;86.43
79048;BME280;68680;50.764;6.120;2023-10-09T05:57:52;99895.59;;;16.43;86.47
79048;BME280;68680;50.764;6.120;2023-10-09T06:00:18;99896.47;;;16.49;86.39
79048;BME280;68680;50.764;6.120;2023-10-09T06:02:44;99893.28;;;16.52;85.70
79048;BME280;68680;50.764;6.120;2023-10-09T06:05:10;99878.72;;;16.48;85.04
79048;BME280;68680;50.764;6.120;2023-10-09T06:07:35;99875.22;;;16.48;84.97
79048;BME280;68680;50.764;6.120;2023-10-09T06:10:01;99876.25;;;16.47;85.38
79048;BME280;68680;50.764;6.120;2023-10-09T06:12:27;99880.69;;;16.58;85.29
79048;BME280;68680;50.764;6.120;2023-10-09T06:14:54;99887.38;;;16.55;85.15
79048;BME280;68680;50.764;6.120;2023-10-09T06:17:20;99896.81;;;16.53;85.52
79048;BME280;68680;50.764;6.120;2023-10-09T06:19:45;99908.38;;;16.53;85.51
79048;BME280;68680;50.764;6.120;2023-10-09T06:22:11;99896.22;;;16.51;85.71
79048;BME280;68680;50.764;6.120;2023-10-09T06:25:01;99897.03;;;16.51;84.92
79048;BME280;68680;50.764;6.120;2023-10-09T06:27:27;99897.34;;;16.55;84.75
79048;BME280;68680;50.764;6.120;2023-10-09T06:29:54;99904.06;;;16.52;85.39
79048;BME280;68680;50.764;6.120;2023-10-09T06:32:20;99900.16;;;16.60;84.49
79048;BME280;68680;50.764;6.120;2023-10-09T06:34:47;99898.09;;;16.72;84.36
79048;BME280;68680;50.764;6.120;2023-10-09T06:37:13;99888.91;;;16.68;84.74
79048;BME280;68680;50.764;6.120;2023-10-09T06:39:38;99898.56;;;16.64;84.76
79048;BME280;68680;50.764;6.120;2023-10-09T06:42:04;99898.31;;;16.65;84.76
79048;BME280;68680;50.764;6.120;2023-10-09T06:44:30;99905.25;;;16.61;84.59
79048;BME280;68680;50.764;6.120;2023-10-09T06:46:57;99892.63;;;16.62;84.47
79048;BME280;68680;50.764;6.120;2023-10-09T06:49:23;99902.47;;;16.56;84.85
79048;BME280;68680;50.764;6.120;2023-10-09T06:51:48;99908.94;;;16.55;85.15
79048;BME280;68680;50.764;6.120;2023-10-09T06:54:14;99922.97;;;16.79;84.91
79048;BME280;68680;50.764;6.120;2023-10-09T06:56:40;99924.03;;;16.78;85.05
79048;BME280;68680;50.764;6.120;2023-10-09T06:59:06;99934.06;;;16.82;84.96
79048;BME280;68680;50.764;6.120;2023-10-09T07:01:32;99949.16;;;16.83;84.30
79048;BME280;68680;50.764;6.120;2023-10-09T07:03:59;99950.25;;;16.82;84.93
79048;BME280;68680;50.764;6.120;2023-10-09T07:06:25;99936.44;;;16.79;84.23
79048;BME280;68680;50.764;6.120;2023-10-09T07:08:52;99951.78;;;17.00;83.78
79048;BME280;68680;50.764;6.120;2023-10-09T07:11:18;99965.44;;;16.94;84.27
79048;BME280;68680;50.764;6.120;2023-10-09T07:13:43;99941.06;;;16.83;83.84
79048;BME280;68680;50.764;6.120;2023-10-09T07:16:09;99950.97;;;16.78;84.92
79048;BME280;68680;50.764;6.120;2023-10-09T07:18:35;99960.19;;;16.82;84.14
79048;BME280;68680;50.764;6.120;2023-10-09T07:21:02;99964.81;;;16.87;84.99
79048;BME280;68680;50.764;6.120;2023-10-09T07:23:28;99964.94;;;16.97;84.13
79048;BME280;68680;50.764;6.120;2023-10-09T07:26:04;99956.31;;;16.95;83.85
79048;BME280;68680;50.764;6.120;2023-10-09T07:28:30;99970.06;;;16.98;84.47
79048;BME280;68680;50.764;6.120;2023-10-09T07:30:56;99977.41;;;17.03;85.33
79048;BME280;68680;50.764;6.120;2023-10-09T07:33:22;99974.41;;;16.99;84.90
79048;BME280;68680;50.764;6.120;2023-10-09T07:35:48;99972.63;;;17.10;85.18
79048;BME280;68680;50.764;6.120;2023-10-09T07:38:17;99978.50;;;17.07;85.14
79048;BME280;68680;50.764;6.120;2023-10-09T07:40:44;99979.13;;;17.14;84.76
79048;BME280;68680;50.764;6.120;2023-10-09T07:43:09;99975.81;;;17.07;84.83
79048;BME280;68680;50.764;6.120;2023-10-09T07:45:35;99963.56;;;17.21;84.71
79048;BME280;68680;50.764;6.120;2023-10-09T07:48:02;99960.22;;;17.09;84.07
79048;BME280;68680;50.764;6.120;2023-10-09T07:50:28;99977.34;;;16.98;85.74
79048;BME280;68680;50.764;6.120;2023-10-09T07:52:54;99964.84;;;17.13;85.02
79048;BME280;68680;50.764;6.120;2023-10-09T07:55:21;99970.78;;;17.15;83.88
79048;BME280;68680;50.764;6.120;2023-10-09T07:57:47;99964.00;;;17.13;84.55
79048;BME280;68680;50.764;6.120;2023-10-09T08:00:14;99961.31;;;17.13;85.00
79048;BME280;68680;50.764;6.120;2023-10-09T08:02:39;99963.00;;;17.19;84.87
79048;BME280;68680;50.764;6.120;2023-10-09T08:05:07;99971.25;;;17.07;84.79
79048;BME280;68680;50.764;6.120;2023-10-09T08:07:33;99972.88;;;17.08;83.95
79048;BME280;68680;50.764;6.120;2023-10-09T08:09:59;99974.25;;;17.11;84.86
79048;BME280;68680;50.764;6.120;2023-10-09T08:12:27;99979.06;;;17.09;84.55
79048;BME280;68680;50.764;6.120;2023-10-09T08:14:56;99975.63;;;17.13;85.09
79048;BME280;68680;50.764;6.120;2023-10-09T08:17:22;99976.91;;;17.06;84.92
79048;BME280;68680;50.764;6.120;2023-10-09T08:19:49;99975.41;;;17.20;85.38
79048;BME280;68680;50.764;6.120;2023-10-09T08:22:15;99981.19;;;17.29;85.00
79048;BME280;68680;50.764;6.120;2023-10-09T08:24:41;99984.41;;;17.31;83.50
79048;BME280;68680;50.764;6.120;2023-10-09T08:27:07;99990.66;;;17.36;84.15
79048;BME280;68680;50.764;6.120;2023-10-09T08:29:34;99983.41;;;17.37;84.09
79048;BME280;68680;50.764;6.120;2023-10-09T08:32:00;99987.47;;;17.39;83.84
79048;BME280;68680;50.764;6.120;2023-10-09T08:34:25;99996.63;;;17.38;85.14
79048;BME280;68680;50.764;6.120;2023-10-09T08:36:52;100003.75;;;17.49;83.96
79048;BME280;68680;50.764;6.120;2023-10-09T08:39:18;99993.53;;;17.51;84.31
79048;BME280;68680;50.764;6.120;2023-10-09T08:41:44;99980.81;;;17.47;83.84
79048;BME280;68680;50.764;6.120;2023-10-09T08:44:12;99968.59;;;17.39;83.78
79048;BME280;68680;50.764;6.120;2023-10-09T08:46:39;99968.66;;;17.44;83.87
79048;BME280;68680;50.764;6.120;2023-10-09T08:49:05;99972.97;;;17.45;84.18
79048;BME280;68680;50.764;6.120;2023-10-09T08:51:31;99960.63;;;17.54;84.58
79048;BME280;68680;50.764;6.120;2023-10-09T08:53:57;99967.41;;;17.57;84.17
79048;BME280;68680;50.764;6.120;2023-10-09T08:56:23;99957.03;;;17.44;84.02
79048;BME280;68680;50.764;6.120;2023-10-09T08:58:51;99952.81;;;17.53;84.59
79048;BME280;68680;50.764;6.120;2023-10-09T09:01:18;99966.66;;;17.61;84.00
79048;BME280;68680;50.764;6.120;2023-10-09T09:03:45;99950.91;;;17.80;83.52
79048;BME280;68680;50.764;6.120;2023-10-09T09:06:11;99954.44;;;17.86;83.71
79048;BME280;68680;50.764;6.120;2023-10-09T09:08:37;99948.72;;;17.77;82.50
79048;BME280;68680;50.764;6.120;2023-10-09T09:11:07;99945.47;;;17.75;83.17
79048;BME280;68680;50.764;6.120;2023-10-09T09:13:33;99943.59;;;17.76;83.19
79048;BME280;68680;50.764;6.120;2023-10-09T09:15:59;99946.84;;;17.83;83.38
79048;BME280;68680;50.764;6.120;2023-10-09T09:18:25;99943.31;;;17.77;82.64
79048;BME280;68680;50.764;6.120;2023-10-09T09:20:52;99952.63;;;17.96;83.31
79048;BME280;68680;50.764;6.120;2023-10-09T09:23:18;99962.75;;;18.16;82.61
79048;BME280;68680;50.764;6.120;2023-10-09T09:25:46;99961.22;;;18.35;81.00
79048;BME280;68680;50.764;6.120;2023-10-09T09:28:12;99962.56;;;18.33;81.01
79048;BME280;68680;50.764;6.120;2023-10-09T09:30:39;99958.53;;;18.40;79.57
79048;BME280;68680;50.764;6.120;2023-10-09T09:33:17;99953.97;;;18.41;79.12
79048;BME280;68680;50.764;6.120;2023-10-09T09:35:58;99935.06;;;18.41;79.08
79048;BME280;68680;50.764;6.120;2023-10-09T09:38:26;99935.19;;;18.61;79.27
79048;BME280;68680;50.764;6.120;2023-10-09T09:40:53;99936.84;;;18.77;78.54
79048;BME280;68680;50.764;6.120;2023-10-09T09:43:22;99934.94;;;18.73;77.94
79048;BME280;68680;50.764;6.120;2023-10-09T09:45:49;99931.75;;;18.91;78.33
79048;BME280;68680;50.764;6.120;2023-10-09T09:48:16;99923.09;;;18.84;77.53
79048;BME280;68680;50.764;6.120;2023-10-09T09:50:42;99932.84;;;18.95;77.45
79048;BME280;68680;50.764;6.120;2023-10-09T09:53:10;99935.56;;;19.10;75.67
79048;BME280;68680;50.764;6.120;2023-10-09T09:55:41;99943.72;;;19.36;75.38
79048;BME280;68680;50.764;6.120;2023-10-09T09:58:13;99935.66;;;19.51;74.36
79048;BME280;68680;50.764;6.120;2023-10-09T10:00:43;99950.25;;;19.70;72.09
79048;BME280;68680;50.764;6.120;2023-10-09T10:03:12;99945.94;;;19.79;71.52
79048;BME280;68680;50.764;6.120;2023-10-09T10:05:42;99947.00;;;19.88;70.21
79048;BME280;68680;50.764;6.120;2023-10-09T10:08:11;99944.53;;;19.92;69.57
79048;BME280;68680;50.764;6.120;2023-10-09T10:10:41;99947.00;;;19.88;66.49
79048;BME280;68680;50.764;6.120;2023-10-09T10:13:07;99938.59;;;20.00;67.93
79048;BME280;68680;50.764;6.120;2023-10-09T10:16:04;99927.16;;;20.18;65.94
79048;BME280;68680;50.764;6.120;2023-10-09T10:18:32;99925.28;;;20.19;64.15
79048;BME280;68680;50.764;6.120;2023-10-09T10:21:12;99920.38;;;20.26;64.17
79048;BME280;68680;50.764;6.120;2023-10-09T10:23:40;99913.06;;;20.36;63.58
79048;BME280;68680;50.764;6.120;2023-10-09T10:26:18;99919.56;;;20.30;62.30
79048;BME280;68680;50.764;6.120;2023-10-09T10:28:44;99917.94;;;20.34;63.72
79048;BME280;68680;50.764;6.120;2023-10-09T10:31:10;99919.50;;;20.45;63.35
79048;BME280;68680;50.764;6.120;2023-10-09T10:34:03;99920.00;;;20.58;62.64
79048;BME280;68680;50.764;6.120;2023-10-09T10:36:29;99909.97;;;20.58;63.18
79048;BME280;68680;50.764;6.120;2023-10-09T10:39:02;99912.94;;;20.62;62.80
79048;BME280;68680;50.764;6.120;2023-10-09T10:41:28;99913.97;;;20.76;63.54
79048;BME280;68680;50.764;6.120;2023-10-09T10:43:53;99907.13;;;20.88;60.79
79048;BME280;68680;50.764;6.120;2023-10-09T10:46:21;99912.28;;;20.85;61.45
79048;BME280;68680;50.764;6.120;2023-10-09T10:48:48;99899.47;;;20.96;61.27
79048;BME280;68680;50.764;6.120;2023-10-09T10:51:14;99896.69;;;21.06;62.52
79048;BME280;68680;50.764;6.120;2023-10-09T10:53:50;99895.69;;;20.97;62.87
79048;BME280;68680;50.764;6.120;2023-10-09T10:56:18;99892.97;;;20.91;60.56
79048;BME280;68680;50.764;6.120;2023-10-09T10:58:52;99889.66;;;21.05;60.32
79048;BME280;68680;50.764;6.120;2023-10-09T11:01:18;99888.59;;;21.01;59.93
79048;BME280;68680;50.764;6.120;2023-10-09T11:03:44;99896.56;;;20.82;58.67
79048;BME280;68680;50.764;6.120;2023-10-09T11:06:10;99904.28;;;21.04;58.76
79048;BME280;68680;50.764;6.120;2023-10-09T11:08:36;99902.75;;;20.92;58.13
79048;BME280;68680;50.764;6.120;2023-10-09T11:11:11;99895.56;;;21.12;59.04
79048;BME280;68680;50.764;6.120;2023-10-09T11:13:38;99901.53;;;21.09;59.16
79048;BME280;68680;50.764;6.120;2023-10-09T11:16:05;99908.34;;;21.06;58.76
79048;BME280;68680;50.764;6.120;2023-10-09T11:18:40;99907.75;;;21.19;58.01
79048;BME280;68680;50.764;6.120;2023-10-09T11:21:06;99907.31;;;20.97;58.45
79048;BME280;68680;50.764;6.120;2023-10-09T11:23:33;99903.00;;;20.96;57.81
79048;BME280;68680;50.764;6.120;2023-10-09T11:26:00;99908.59;;;21.15;58.19
79048;BME280;68680;50.764;6.120;2023-10-09T11:28:26;99910.84;;;20.98;58.75
79048;BME280;68680;50.764;6.120;2023-10-09T11:30:53;99906.97;;;21.09;58.74
79048;BME280;68680;50.764;6.120;2023-10-09T11:33:19;99905.91;;;21.05;57.72
79048;BME280;68680;50.764;6.120;2023-10-09T11:35:56;99912.16;;;21.05;56.37
79048;BME280;68680;50.764;6.120;2023-10-09T11:38:22;99901.00;;;21.12;57.09
79048;BME280;68680;50.764;6.120;2023-10-09T11:40:48;99906.63;;;21.25;55.71
79048;BME280;68680;50.764;6.120;2023-10-09T11:43:13;99915.47;;;21.41;54.64
79048;BME280;68680;50.764;6.120;2023-10-09T11:45:40;99917.53;;;21.49;55.76
79048;BME280;68680;50.764;6.120;2023-10-09T11:48:20;99917.34;;;21.41;56.15
79048;BME280;68680;50.764;6.120;2023-10-09T11:50:47;99915.91;;;21.53;54.40
79048;BME280;68680;50.764;6.120;2023-10-09T11:53:13;99912.75;;;21.41;55.19
79048;BME280;68680;50.764;6.120;2023-10-09T11:55:39;99908.72;;;21.34;54.65
79048;BME280;68680;50.764;6.120;2023-10-09T11:58:05;99898.19;;;21.27;55.22
79048;BME280;68680;50.764;6.120;2023-10-09T12:00:32;99917.69;;;21.34;56.36
79048;BME280;68680;50.764;6.120;2023-10-09T12:02:58;99915.94;;;21.48;55.05
79048;BME280;68680;50.764;6.120;2023-10-09T12:05:25;99923.94;;;21.63;55.47
79048;BME280;68680;50.764;6.120;2023-10-09T12:07:51;99917.38;;;21.69;53.90
79048;BME280;68680;50.764;6.120;2023-10-09T12:10:17;99918.19;;;21.70;54.86
79048;BME280;68680;50.764;6.120;2023-10-09T12:12:43;99918.19;;;21.70;55.79
79048;BME280;68680;50.764;6.120;2023-10-09T12:15:09;99922.81;;;21.69;54.57
79048;BME280;68680;50.764;6.120;2023-10-09T12:17:35;99907.44;;;21.60;54.88
79048;BME280;68680;50.764;6.120;2023-10-09T12:20:01;99910.53;;;21.48;55.48
79048;BME280;68680;50.764;6.120;2023-10-09T12:22:28;99908.78;;;21.57;56.21
79048;BME280;68680;50.764;6.120;2023-10-09T12:24:54;99897.56;;;21.69;54.52
79048;BME280;68680;50.764;6.120;2023-10-09T12:27:19;99908.78;;;21.57;54.52
79048;BME280;68680;50.764;6.120;2023-10-09T12:29:45;99906.19;;;21.76;54.43
79048;BME280;68680;50.764;6.120;2023-10-09T12:32:11;99897.84;;;21.67;54.59
79048;BME280;68680;50.764;6.120;2023-10-09T12:34:37;99902.00;;;21.60;55.82
79048;BME280;68680;50.764;6.120;2023-10-09T12:37:03;99906.28;;;21.66;55.87
79048;BME280;68680;50.764;6.120;2023-10-09T12:39:30;99906.03;;;21.62;56.12
79048;BME280;68680;50.764;6.120;2023-10-09T12:41:56;99900.50;;;21.72;56.14
79048;BME280;68680;50.764;6.120;2023-10-09T12:44:21;99902.22;;;21.63;55.79
79048;BME280;68680;50.764;6.120;2023-10-09T12:46:47;99906.47;;;21.75;55.99
79048;BME280;68680;50.764;6.120;2023-10-09T12:49:13;99902.75;;;21.65;56.79
79048;BME280;68680;50.764;6.120;2023-10-09T12:51:39;99898.13;;;21.37;55.83
79048;BME280;68680;50.764;6.120;2023-10-09T12:54:05;99894.69;;;21.55;55.77
79048;BME280;68680;50.764;6.120;2023-10-09T12:56:32;99900.09;;;21.60;55.48
79048;BME280;68680;50.764;6.120;2023-10-09T12:58:58;99903.38;;;21.57;56.15